createdAt,value
2023-05-09T00:01:57.135Z,100.00
2023-05-09T00:06:08.227Z,100.00
2023-05-09T00:10:37.405Z,100.00
2023-05-09T00:14:48.194Z,100.00
2023-05-09T00:19:17.182Z,100.00
2023-05-09T00:23:26.465Z,100.00
2023-05-09T00:27:17.517Z,100.00
2023-05-09T00:31:26.413Z,100.00
2023-05-09T00:35:55.456Z,100.00
2023-05-09T00:40:04.775Z,100.00
2023-05-09T00:44:33.585Z,100.00
2023-05-09T00:48:34.799Z,100.00
2023-05-09T00:52:43.970Z,100.00
2023-05-09T00:56:52.872Z,100.00
2023-05-09T01:01:01.642Z,100.00
2023-05-09T01:05:12.870Z,100.00
2023-05-09T01:09:23.116Z,100.00
2023-05-09T01:13:36.713Z,100.00
2023-05-09T01:17:54.892Z,100.00
2023-05-09T01:22:08.103Z,100.00
2023-05-09T01:26:38.290Z,100.00
2023-05-09T01:30:43.164Z,100.00
2023-05-09T01:35:14.165Z,100.00
2023-05-09T01:39:42.925Z,100.00
2023-05-09T01:43:59.893Z,100.00
2023-05-09T01:48:29.226Z,100.00
2023-05-09T01:52:58.067Z,100.00
2023-05-09T01:56:48.290Z,100.00
2023-05-09T02:00:57.385Z,100.00
2023-05-09T02:05:06.834Z,100.00
2023-05-09T02:09:16.027Z,100.00
2023-05-09T02:13:25.062Z,100.00
2023-05-09T02:17:34.272Z,100.00
2023-05-09T02:21:30.833Z,100.00
2023-05-09T02:25:59.707Z,100.00
2023-05-09T02:30:24.979Z,100.00
2023-05-09T02:34:53.868Z,100.00
2023-05-09T02:39:23.329Z,100.00
2023-05-09T02:43:47.840Z,100.00
2023-05-09T02:48:16.967Z,100.00
2023-05-09T02:52:41.057Z,100.00
2023-05-09T02:56:49.946Z,100.00
2023-05-09T03:00:59.146Z,100.00
2023-05-09T03:05:27.927Z,100.00
2023-05-09T03:09:54.899Z,100.00
2023-05-09T03:14:07.692Z,100.00
2023-05-09T03:18:17.354Z,100.00
2023-05-09T03:22:27.050Z,100.00
2023-05-09T03:26:44.145Z,100.00
2023-05-09T03:31:13.198Z,100.00
2023-05-09T03:35:42.108Z,100.00
2023-05-09T03:39:54.864Z,100.00
2023-05-09T03:43:44.202Z,100.00
2023-05-09T03:48:13.002Z,100.00
2023-05-09T03:52:41.953Z,100.00
2023-05-09T03:57:10.551Z,100.00
2023-05-09T04:01:40.287Z,100.00
2023-05-09T04:05:50.577Z,100.00
2023-05-09T04:10:00.965Z,100.00
2023-05-09T04:14:19.613Z,100.00
2023-05-09T04:18:50.045Z,100.00
2023-05-09T04:23:22.157Z,100.00
2023-05-09T04:27:32.394Z,100.00
2023-05-09T04:31:46.113Z,100.00
2023-05-09T04:36:14.775Z,100.00
2023-05-09T04:40:44.497Z,100.00
2023-05-09T04:45:04.754Z,100.00
2023-05-09T04:49:33.738Z,100.00
2023-05-09T04:53:45.188Z,100.00
2023-05-09T04:58:14.833Z,100.00
2023-05-09T05:02:24.166Z,100.00
2023-05-09T05:06:53.927Z,100.00
2023-05-09T05:11:23.522Z,100.00
2023-05-09T05:15:52.981Z,100.00
2023-05-09T05:20:02.280Z,100.00
2023-05-09T05:24:31.633Z,100.00
2023-05-09T05:28:23.006Z,100.00
2023-05-09T05:32:52.554Z,100.00
2023-05-09T05:37:19.682Z,100.00
2023-05-09T05:41:48.579Z,100.00
2023-05-09T05:45:57.924Z,100.00
2023-05-09T05:50:29.493Z,100.00
2023-05-09T05:54:46.389Z,100.00
2023-05-09T05:58:55.673Z,100.00
2023-05-09T06:03:05.249Z,100.00
2023-05-09T06:07:23.206Z,100.00
2023-05-09T06:11:52.533Z,100.00
2023-05-09T06:16:21.599Z,100.00
2023-05-09T06:20:50.933Z,100.00
2023-05-09T06:25:19.502Z,100.00
2023-05-09T06:29:48.770Z,100.00
2023-05-09T06:34:18.052Z,100.00
2023-05-09T06:38:27.492Z,100.00
2023-05-09T06:42:56.558Z,100.00
2023-05-09T06:47:26.039Z,100.00
2023-05-09T06:51:55.610Z,97.87
2023-05-09T06:56:24.819Z,93.68
2023-05-09T07:00:55.130Z,97.96
2023-05-09T07:05:24.342Z,92.74
2023-05-09T07:09:37.930Z,86.49
2023-05-09T07:13:53.339Z,88.79
2023-05-09T07:18:22.946Z,72.78
2023-05-09T07:22:52.043Z,61.76
2023-05-09T07:27:21.063Z,56.81
2023-05-09T07:31:38.609Z,54.36
2023-05-09T07:36:07.937Z,54.07
2023-05-09T07:40:37.235Z,52.28
2023-05-09T07:45:06.814Z,48.89
2023-05-09T07:49:35.806Z,47.58
2023-05-09T07:54:05.943Z,46.57
2023-05-09T07:58:35.192Z,47.04
2023-05-09T08:03:04.676Z,43.77
2023-05-09T08:07:33.796Z,43.36
2023-05-09T08:12:04.000Z,41.60
2023-05-09T08:16:33.566Z,41.71
2023-05-09T08:21:02.917Z,41.60
2023-05-09T08:25:32.381Z,41.00
2023-05-09T08:30:02.421Z,41.42
2023-05-09T08:34:32.981Z,40.56
2023-05-09T08:38:47.215Z,40.73
2023-05-09T08:43:18.320Z,40.93
2023-05-09T08:47:47.811Z,40.69
2023-05-09T08:52:17.624Z,40.42
2023-05-09T08:56:48.968Z,39.93
2023-05-09T09:01:19.090Z,41.18
2023-05-09T09:05:48.584Z,38.60
2023-05-09T09:13:47.327Z,38.70
2023-05-09T09:17:35.590Z,39.16
2023-05-09T09:21:19.627Z,39.30
2023-05-09T09:25:07.370Z,39.27
2023-05-09T09:28:49.477Z,39.43
2023-05-09T09:32:37.858Z,39.13
2023-05-09T09:36:25.423Z,38.55
2023-05-09T09:40:13.252Z,38.12
2023-05-09T09:44:07.207Z,38.34
2023-05-09T09:47:50.116Z,37.62
2023-05-09T09:51:38.174Z,38.30
2023-05-09T09:55:16.134Z,37.36
2023-05-09T09:59:03.708Z,37.78
2023-05-09T10:03:00.624Z,38.19
2023-05-09T10:06:44.708Z,37.32
2023-05-09T10:10:33.663Z,37.79
2023-05-09T10:14:21.375Z,37.46
2023-05-09T10:18:10.255Z,37.02
2023-05-09T10:21:59.957Z,36.77
2023-05-09T10:26:20.571Z,37.81
2023-05-09T10:30:19.362Z,36.61
2023-05-09T10:34:08.117Z,37.27
2023-05-09T10:38:02.702Z,36.14
2023-05-09T10:41:49.392Z,35.98
2023-05-09T10:45:37.308Z,36.69
2023-05-09T10:49:45.152Z,36.65
2023-05-09T10:53:45.597Z,36.49
2023-05-09T10:57:38.644Z,35.55
2023-05-09T11:05:55.935Z,35.48
2023-05-09T11:10:03.963Z,36.28
2023-05-09T11:13:58.345Z,36.39
2023-05-09T11:18:26.210Z,36.58
2023-05-09T11:22:43.437Z,36.12
2023-05-09T11:26:51.750Z,36.40
2023-05-09T11:31:00.189Z,36.31
2023-05-09T11:34:50.824Z,35.42
2023-05-09T11:38:44.713Z,36.11
2023-05-09T11:42:50.312Z,35.94
2023-05-09T11:46:55.046Z,36.18
2023-05-09T11:50:51.139Z,35.57
2023-05-09T11:54:59.088Z,36.16
2023-05-09T11:59:12.069Z,36.22
2023-05-09T12:03:21.752Z,35.94
2023-05-09T12:07:10.720Z,35.18
2023-05-09T12:11:01.027Z,34.94
2023-05-09T12:14:38.324Z,33.63
2023-05-09T12:18:26.660Z,36.02
2023-05-09T12:22:16.477Z,34.54
2023-05-09T12:26:05.370Z,34.47
2023-05-09T12:30:14.852Z,34.63
2023-05-09T12:34:06.948Z,35.58
2023-05-09T12:37:59.299Z,34.67
2023-05-09T12:42:00.956Z,35.27
2023-05-09T12:46:04.076Z,35.13
2023-05-09T12:50:33.425Z,34.57
2023-05-09T12:55:05.228Z,32.87
2023-05-09T12:59:35.941Z,34.49
2023-05-09T13:03:26.385Z,35.30
2023-05-09T13:07:36.201Z,34.95
2023-05-09T13:11:25.538Z,34.50
2023-05-09T13:15:33.411Z,35.33
2023-05-09T13:19:23.583Z,34.49
2023-05-09T13:23:12.320Z,33.76
2023-05-09T13:27:20.389Z,33.71
2023-05-09T13:31:28.713Z,33.92
2023-05-09T13:35:37.046Z,33.95
2023-05-09T13:39:42.110Z,33.95
2023-05-09T13:43:30.105Z,34.18
2023-05-09T13:47:18.261Z,35.03
2023-05-09T13:51:07.520Z,33.60
2023-05-09T13:54:59.834Z,34.24
2023-05-09T13:59:21.471Z,34.00
2023-05-09T14:03:11.086Z,34.28
2023-05-09T14:07:12.728Z,34.51
2023-05-09T14:11:00.963Z,34.47
2023-05-09T14:14:49.547Z,33.58
2023-05-09T14:18:38.250Z,33.83
2023-05-09T14:22:31.660Z,33.85
2023-05-09T14:26:14.134Z,34.28
2023-05-09T14:30:05.216Z,33.87
2023-05-09T14:33:53.416Z,33.94
2023-05-09T14:37:42.102Z,33.46
2023-05-09T14:41:33.549Z,33.62
2023-05-09T14:45:23.336Z,33.75
2023-05-09T14:49:13.304Z,33.69
2023-05-09T14:53:06.595Z,33.75
2023-05-09T14:57:00.758Z,33.90
2023-05-09T15:00:53.689Z,33.63
2023-05-09T15:04:50.617Z,34.14
2023-05-09T15:08:39.683Z,33.58
2023-05-09T15:12:31.107Z,32.96
2023-05-09T15:16:26.248Z,33.24
2023-05-09T15:20:08.685Z,33.61
2023-05-09T15:23:57.557Z,32.74
2023-05-09T15:27:45.875Z,32.45
2023-05-09T15:31:35.683Z,32.74
2023-05-09T15:35:24.040Z,32.48
2023-05-09T15:39:11.884Z,33.03
2023-05-09T15:43:01.043Z,33.58
2023-05-09T15:46:46.262Z,33.44
2023-05-09T15:50:34.647Z,33.69
2023-05-09T15:54:35.637Z,33.74
2023-05-09T15:58:24.528Z,33.78
2023-05-09T16:02:14.251Z,34.54
2023-05-09T16:06:02.416Z,34.40
2023-05-09T16:09:16.571Z,34.40
2023-05-09T16:13:03.797Z,34.24
2023-05-09T16:16:51.721Z,34.07
2023-05-09T16:20:35.582Z,33.77
2023-05-09T16:24:12.858Z,34.26
2023-05-09T16:28:01.528Z,33.89
2023-05-09T16:31:43.068Z,34.41
2023-05-09T16:35:30.949Z,34.37
2023-05-09T16:39:20.478Z,34.07
2023-05-09T16:43:09.605Z,34.61
2023-05-09T16:47:05.410Z,34.64
2023-05-09T16:50:53.763Z,35.04
2023-05-09T16:54:34.481Z,34.88
2023-05-09T16:58:23.233Z,35.13
2023-05-09T17:02:12.816Z,35.41
2023-05-09T17:06:05.631Z,35.33
2023-05-09T17:09:48.994Z,35.76
2023-05-09T17:13:36.898Z,35.90
2023-05-09T17:17:05.513Z,36.32
2023-05-09T17:20:58.523Z,37.09
2023-05-09T17:24:22.881Z,37.63
2023-05-09T17:28:21.361Z,37.93
2023-05-09T17:31:59.353Z,38.37
2023-05-09T17:35:35.561Z,38.94
2023-05-09T17:39:15.959Z,39.74
2023-05-09T17:43:03.730Z,40.02
2023-05-09T17:46:32.650Z,40.52
2023-05-09T17:50:20.823Z,40.74
2023-05-09T17:53:49.506Z,41.17
2023-05-09T17:57:37.724Z,41.81
2023-05-09T18:01:12.511Z,42.27
2023-05-09T18:04:54.078Z,42.71
2023-05-09T18:08:32.509Z,43.33
2023-05-09T18:12:03.974Z,43.64
2023-05-09T18:16:03.447Z,44.27
2023-05-09T18:19:57.511Z,44.58
2023-05-09T18:24:01.097Z,45.48
2023-05-09T18:27:53.690Z,45.89
2023-05-09T18:31:24.858Z,46.42
2023-05-09T18:34:53.100Z,46.77
2023-05-09T18:38:42.209Z,47.58
2023-05-09T18:42:05.699Z,48.35
2023-05-09T18:45:54.426Z,48.79
2023-05-09T18:49:33.565Z,49.47
2023-05-09T18:53:04.935Z,49.93
2023-05-09T18:56:53.265Z,50.30
2023-05-09T19:00:35.715Z,50.54
2023-05-09T19:04:24.752Z,51.22
2023-05-09T19:07:52.433Z,51.35
2023-05-09T19:11:35.936Z,51.23
2023-05-09T19:15:26.239Z,51.26
2023-05-09T19:19:17.729Z,51.73
2023-05-09T19:23:10.626Z,52.25
2023-05-09T19:26:58.930Z,52.89
2023-05-09T19:31:10.401Z,53.03
2023-05-09T19:34:58.161Z,53.08
2023-05-09T19:38:31.716Z,53.24
2023-05-09T19:42:00.965Z,53.47
2023-05-09T19:45:36.797Z,53.17
2023-05-09T19:49:19.207Z,53.44
2023-05-09T19:52:42.382Z,53.34
2023-05-09T19:56:13.915Z,53.68
2023-05-09T19:59:55.350Z,53.98
2023-05-09T20:03:24.671Z,54.21
2023-05-09T20:07:12.755Z,55.02
2023-05-09T20:11:00.578Z,55.06
2023-05-09T20:14:30.090Z,54.86
2023-05-09T20:17:45.819Z,55.14
2023-05-09T20:21:11.931Z,55.30
2023-05-09T20:25:03.186Z,56.05
2023-05-09T20:28:45.472Z,56.78
2023-05-09T20:32:24.853Z,57.29
2023-05-09T20:35:57.408Z,57.70
2023-05-09T20:39:13.333Z,58.08
2023-05-09T20:43:07.195Z,58.46
2023-05-09T20:46:33.226Z,58.82
2023-05-09T20:50:14.404Z,58.60
2023-05-09T20:54:09.382Z,59.26
2023-05-09T20:57:59.475Z,59.71
2023-05-09T21:01:47.150Z,60.05
2023-05-09T21:05:29.566Z,60.47
2023-05-09T21:09:12.431Z,61.17
2023-05-09T21:12:49.703Z,61.87
2023-05-09T21:16:29.365Z,61.84
2023-05-09T21:19:52.762Z,61.88
2023-05-09T21:23:41.063Z,61.80
2023-05-09T21:27:29.086Z,62.29
2023-05-09T21:31:17.906Z,62.84
2023-05-09T21:35:06.353Z,62.89
2023-05-09T21:38:37.389Z,62.91
2023-05-09T21:42:19.591Z,63.07
2023-05-09T21:45:35.520Z,63.56
2023-05-09T21:48:45.561Z,63.23
2023-05-09T21:52:24.695Z,63.77
2023-05-09T21:56:12.909Z,64.19
2023-05-09T21:59:52.619Z,64.38
2023-05-09T22:03:11.351Z,64.71
2023-05-09T22:07:00.816Z,65.19
2023-05-09T22:10:07.355Z,64.60
2023-05-09T22:13:48.184Z,65.05
2023-05-09T22:17:26.689Z,65.22
2023-05-09T22:21:05.291Z,66.24
2023-05-09T22:24:18.866Z,66.31
2023-05-09T22:27:56.064Z,66.98
2023-05-09T22:31:41.740Z,67.69
2023-05-09T22:34:32.179Z,67.19
2023-05-09T22:37:54.560Z,67.37
2023-05-09T22:41:24.639Z,67.70
2023-05-09T22:44:56.311Z,67.81
2023-05-09T22:48:33.253Z,68.43
2023-05-09T22:52:21.255Z,68.64
2023-05-09T22:56:02.312Z,69.44
2023-05-09T22:59:21.529Z,70.19
2023-05-09T23:02:50.360Z,70.09
2023-05-09T23:05:50.682Z,70.54
2023-05-09T23:08:50.708Z,69.87
2023-05-09T23:11:34.080Z,70.60
2023-05-09T23:15:21.557Z,70.19
2023-05-09T23:18:29.435Z,70.38
2023-05-09T23:21:21.349Z,70.51
2023-05-09T23:24:51.456Z,70.84
2023-05-09T23:28:39.618Z,70.90
2023-05-09T23:32:14.703Z,71.34
2023-05-09T23:36:01.688Z,71.89
2023-05-09T23:39:05.287Z,71.52
2023-05-09T23:42:53.821Z,71.65
2023-05-09T23:45:45.677Z,71.08
2023-05-09T23:49:27.691Z,71.12
2023-05-09T23:52:29.735Z,71.57
2023-05-09T23:55:56.838Z,71.56
2023-05-09T23:58:46.951Z,72.44
